Time;durP1;ratioP1;P1;durP2;ratioP2;P2;SDS_P1;SDS_P2;PMS_P1;PMS_P2;Temp;Humidity;BMP_temperature;BMP_pressure;BME280_temperature;BME280_humidity;BME280_pressure;Samples;Min_cycle;Max_cycle;Signal;HPM_P1;HPM_P2
2022/11/29 00:01:21;;;;;;;24.60;12.13;;;;;;;;;;5011430;28;20019;-81
2022/11/29 00:03:46;;;;;;;24.88;11.93;;;;;;;;;;4996092;28;20084;-80
2022/11/29 00:06:14;;;;;;;24.70;12.38;;;;;;;;;;4996173;28;20026;-82
2022/11/29 00:08:40;;;;;;;23.48;11.50;;;;;;;;;;4996334;28;20121;-80
2022/11/29 00:12:10;;;;;;;24.55;12.55;;;;;;;;;;5001072;28;20123;-82
2022/11/29 00:14:04;;;;;;;19.85;11.07;;;;;;;;;;5000253;28;20026;-80
2022/11/29 00:16:30;;;;;;;21.00;9.38;;;;;;;;;;5000600;28;20048;-81
2022/11/29 00:18:55;;;;;;;22.80;11.10;;;;;;;;;;4999515;28;20491;-78
2022/11/29 00:21:20;;;;;;;25.45;12.23;;;;;;;;;;5001402;28;20026;-80
2022/11/29 00:23:46;;;;;;;23.23;12.27;;;;;;;;;;5001644;28;20033;-80
2022/11/29 00:26:11;;;;;;;24.60;12.57;;;;;;;;;;5015801;28;20023;-80
2022/11/29 00:28:36;;;;;;;24.13;11.70;;;;;;;;;;5001227;28;20105;-81
2022/11/29 00:31:20;;;;;;;24.40;11.73;;;;;;;;;;5001276;28;20499;-81
2022/11/29 00:33:45;;;;;;;22.60;11.77;;;;;;;;;;5000932;28;20480;-81
2022/11/29 00:36:11;;;;;;;24.85;13.25;;;;;;;;;;5000589;28;20310;-80
2022/11/29 00:38:37;;;;;;;26.33;12.25;;;;;;;;;;5000234;28;20018;-80
2022/11/29 00:41:03;;;;;;;20.55;11.63;;;;;;;;;;5000716;28;20109;-79
2022/11/29 00:43:28;;;;;;;20.10;11.93;;;;;;;;;;5001059;28;20030;-79
2022/11/29 00:45:53;;;;;;;22.75;12.15;;;;;;;;;;5000496;28;20419;-79
2022/11/29 00:48:18;;;;;;;25.88;13.02;;;;;;;;;;5001123;28;20026;-79
2022/11/29 00:50:44;;;;;;;23.40;11.32;;;;;;;;;;4999987;28;20026;-81
2022/11/29 00:53:09;;;;;;;20.27;9.80;;;;;;;;;;5001054;28;20426;-81
2022/11/29 00:55:34;;;;;;;31.27;12.88;;;;;;;;;;4999802;28;20030;-81
2022/11/29 00:58:00;;;;;;;25.80;13.00;;;;;;;;;;5016458;28;20030;-81
2022/11/29 01:00:25;;;;;;;26.33;13.10;;;;;;;;;;5001665;28;20035;-80
2022/11/29 01:02:51;;;;;;;26.92;13.85;;;;;;;;;;5017431;28;20089;-80
2022/11/29 01:05:16;;;;;;;23.77;11.70;;;;;;;;;;5016639;28;20496;-79
2022/11/29 01:07:41;;;;;;;26.65;13.13;;;;;;;;;;5000624;28;20049;-81
2022/11/29 01:10:07;;;;;;;26.60;13.43;;;;;;;;;;4998443;28;20034;-81
2022/11/29 01:12:36;;;;;;;28.40;13.55;;;;;;;;;;4999739;28;20400;-80
2022/11/29 01:15:03;;;;;;;27.30;13.50;;;;;;;;;;4997805;28;20030;-80
2022/11/29 01:17:29;;;;;;;27.08;12.93;;;;;;;;;;4999689;28;20476;-80
2022/11/29 01:19:54;;;;;;;23.77;12.95;;;;;;;;;;4999439;28;20029;-80
2022/11/29 01:22:19;;;;;;;26.67;13.70;;;;;;;;;;4999459;28;20022;-81
2022/11/29 01:24:44;;;;;;;26.05;14.27;;;;;;;;;;4998380;28;20027;-81
2022/11/29 01:27:10;;;;;;;28.30;13.23;;;;;;;;;;4997752;28;20129;-80
2022/11/29 01:29:35;;;;;;;25.15;13.93;;;;;;;;;;4999362;28;20034;-82
2022/11/29 01:32:00;;;;;;;28.45;14.25;;;;;;;;;;5000130;28;20080;-81
2022/11/29 01:34:25;;;;;;;25.55;12.52;;;;;;;;;;5014673;28;20085;-80
2022/11/29 01:36:51;;;;;;;26.42;13.50;;;;;;;;;;4999157;28;20480;-82
2022/11/29 01:39:16;;;;;;;24.33;12.77;;;;;;;;;;5014999;28;20080;-80
2022/11/29 01:41:42;;;;;;;27.92;13.35;;;;;;;;;;4998621;28;20036;-81
2022/11/29 01:44:13;;;;;;;27.38;13.32;;;;;;;;;;4998732;28;20026;-81
2022/11/29 01:46:40;;;;;;;24.67;13.07;;;;;;;;;;4998793;28;20030;-81
2022/11/29 01:49:31;;;;;;;32.75;14.77;;;;;;;;;;4998706;28;20049;-80
2022/11/29 01:52:04;;;;;;;25.08;13.63;;;;;;;;;;4991669;28;20487;-82
2022/11/29 01:54:33;;;;;;;26.63;12.40;;;;;;;;;;4998779;28;20030;-80
2022/11/29 01:57:01;;;;;;;28.13;13.30;;;;;;;;;;4999872;28;20100;-80
2022/11/29 01:59:28;;;;;;;25.05;13.32;;;;;;;;;;4999884;28;20030;-80
2022/11/29 02:02:03;;;;;;;30.17;13.57;;;;;;;;;;4998731;28;20020;-80
2022/11/29 02:04:36;;;;;;;27.00;13.75;;;;;;;;;;4999861;28;20022;-79
2022/11/29 02:07:02;;;;;;;24.40;13.52;;;;;;;;;;4999620;28;20026;-80
2022/11/29 02:09:27;;;;;;;30.60;14.70;;;;;;;;;;5013514;28;20550;-80
2022/11/29 02:12:17;;;;;;;24.15;12.32;;;;;;;;;;5014196;28;20026;-80
2022/11/29 02:15:07;;;;;;;25.60;12.57;;;;;;;;;;4998956;28;20023;-80
2022/11/29 02:17:54;;;;;;;28.70;13.60;;;;;;;;;;4998710;28;20057;-79
2022/11/29 02:20:58;;;;;;;27.00;14.02;;;;;;;;;;4998146;28;20033;-80
2022/11/29 02:23:32;;;;;;;30.95;13.45;;;;;;;;;;4994136;28;20092;-80
2022/11/29 02:26:19;;;;;;;28.85;13.85;;;;;;;;;;4998936;28;20101;-80
2022/11/29 02:29:01;;;;;;;26.05;12.07;;;;;;;;;;4996965;28;20022;-81
2022/11/29 02:31:43;;;;;;;22.98;13.20;;;;;;;;;;4998706;28;20015;-79
2022/11/29 02:34:27;;;;;;;28.48;12.90;;;;;;;;;;5013692;28;20030;-80
2022/11/29 02:37:11;;;;;;;28.20;14.85;;;;;;;;;;4998342;28;20041;-81
2022/11/29 02:39:36;;;;;;;28.45;13.10;;;;;;;;;;4999500;28;20033;-80
2022/11/29 02:42:08;;;;;;;28.40;12.83;;;;;;;;;;4997496;28;20395;-80
2022/11/29 02:44:43;;;;;;;31.58;14.32;;;;;;;;;;4997384;28;20272;-81
2022/11/29 02:47:26;;;;;;;32.05;14.88;;;;;;;;;;4998355;28;20062;-80
2022/11/29 02:50:10;;;;;;;26.45;13.35;;;;;;;;;;4996543;28;20026;-79
2022/11/29 02:53:04;;;;;;;31.52;15.98;;;;;;;;;;4998237;28;20034;-80
2022/11/29 02:55:42;;;;;;;28.17;14.50;;;;;;;;;;4997881;28;20424;-79
2022/11/29 02:58:14;;;;;;;29.75;13.70;;;;;;;;;;4996106;28;20749;-81
2022/11/29 03:00:48;;;;;;;27.83;13.80;;;;;;;;;;4997638;28;20026;-79
2022/11/29 03:03:21;;;;;;;29.00;13.60;;;;;;;;;;5013943;28;20026;-80
2022/11/29 03:06:06;;;;;;;30.77;14.75;;;;;;;;;;4997692;28;20034;-82
2022/11/29 03:08:35;;;;;;;27.38;13.90;;;;;;;;;;5014033;28;20030;-81
2022/11/29 03:11:37;;;;;;;28.70;13.88;;;;;;;;;;4997865;28;20562;-80
2022/11/29 03:14:29;;;;;;;24.98;11.95;;;;;;;;;;4997573;28;20035;-79
2022/11/29 03:17:04;;;;;;;30.33;12.95;;;;;;;;;;4999993;28;20069;-80
2022/11/29 03:19:38;;;;;;;27.75;13.65;;;;;;;;;;4999392;28;20502;-80
2022/11/29 03:22:09;;;;;;;;;;;;;;;;;;4998617;28;20031;-79
2022/11/29 03:24:43;;;;;;;29.55;13.43;;;;;;;;;;4999439;28;19909;-80
2022/11/29 03:27:13;;;;;;;25.58;12.98;;;;;;;;;;4998739;28;20037;-80
2022/11/29 03:29:49;;;;;;;28.73;13.90;;;;;;;;;;4998674;28;20034;-80
2022/11/29 03:32:26;;;;;;;30.70;15.20;;;;;;;;;;4999782;28;20052;-79
2022/11/29 03:35:17;;;;;;;26.60;13.82;;;;;;;;;;4998431;28;20101;-80
2022/11/29 03:38:19;;;;;;;25.85;13.82;;;;;;;;;;4999138;28;20034;-80
2022/11/29 03:41:12;;;;;;;29.20;12.98;;;;;;;;;;4997852;28;20027;-81
2022/11/29 03:43:46;;;;;;;26.42;13.40;;;;;;;;;;4988016;28;20041;-81
2022/11/29 03:46:24;;;;;;;29.67;14.23;;;;;;;;;;5013909;28;20461;-79
2022/11/29 03:48:55;;;;;;;29.88;13.40;;;;;;;;;;4998267;28;20027;-81
2022/11/29 03:51:37;;;;;;;22.67;12.02;;;;;;;;;;5014015;28;20113;-81
2022/11/29 03:54:09;;;;;;;23.92;12.75;;;;;;;;;;5014074;28;20100;-80
2022/11/29 03:56:38;;;;;;;25.70;13.45;;;;;;;;;;4997626;28;20038;-81
2022/11/29 03:59:31;;;;;;;22.70;12.32;;;;;;;;;;4998679;28;20022;-82
2022/11/29 04:02:11;;;;;;;25.30;13.38;;;;;;;;;;4997830;28;20030;-80
2022/11/29 04:05:01;;;;;;;26.52;13.73;;;;;;;;;;4996811;28;20026;-80
2022/11/29 04:08:08;;;;;;;25.45;13.32;;;;;;;;;;4997694;28;20033;-81
2022/11/29 04:11:10;;;;;;;27.63;13.60;;;;;;;;;;4997221;28;20037;-80
2022/11/29 04:13:55;;;;;;;24.45;11.98;;;;;;;;;;4996590;28;20126;-79
2022/11/29 04:16:37;;;;;;;24.90;13.07;;;;;;;;;;4997536;28;20034;-78
2022/11/29 04:19:24;;;;;;;29.40;13.43;;;;;;;;;;4997401;28;20034;-79
2022/11/29 04:22:18;;;;;;;27.08;12.82;;;;;;;;;;4995666;28;20033;-80
2022/11/29 04:25:07;;;;;;;29.95;14.00;;;;;;;;;;4997579;28;20476;-80
2022/11/29 04:28:01;;;;;;;25.33;12.15;;;;;;;;;;4997239;28;20025;-80
2022/11/29 04:31:01;;;;;;;24.63;11.65;;;;;;;;;;4996295;28;20114;-81
2022/11/29 04:33:56;;;;;;;24.08;11.43;;;;;;;;;;4943379;28;20154;-80
2022/11/29 04:36:33;;;;;;;;;;;;;;;;;;4996728;28;20029;-80
2022/11/29 04:39:36;;;;;;;24.45;12.30;;;;;;;;;;4996314;28;19952;-82
2022/11/29 04:42:23;;;;;;;27.75;13.07;;;;;;;;;;4973351;28;20035;-81
2022/11/29 04:45:06;;;;;;;25.42;12.18;;;;;;;;;;4994698;28;20487;-79
2022/11/29 04:47:42;;;;;;;25.65;12.85;;;;;;;;;;4996744;28;20050;-81
2022/11/29 04:50:45;;;;;;;22.38;10.90;;;;;;;;;;5011352;28;20026;-81
2022/11/29 04:53:31;;;;;;;25.90;11.98;;;;;;;;;;4995720;28;20027;-81
2022/11/29 04:56:31;;;;;;;29.15;13.68;;;;;;;;;;4996459;28;20034;-79
2022/11/29 04:59:05;;;;;;;27.42;12.65;;;;;;;;;;4999196;28;20507;-80
2022/11/29 05:02:00;;;;;;;24.48;12.13;;;;;;;;;;4998293;28;20029;-81
2022/11/29 05:04:34;;;;;;;24.92;13.57;;;;;;;;;;4998902;28;20594;-80
2022/11/29 05:07:27;;;;;;;26.90;12.63;;;;;;;;;;4999512;28;20033;-80
2022/11/29 05:10:14;;;;;;;20.15;11.27;;;;;;;;;;4997658;28;20034;-78
2022/11/29 05:13:02;;;;;;;27.55;12.40;;;;;;;;;;4999650;28;20044;-81
2022/11/29 05:15:55;;;;;;;24.83;12.13;;;;;;;;;;4999337;28;20030;-81
2022/11/29 05:18:44;;;;;;;27.38;13.38;;;;;;;;;;5013471;28;20023;-81
2022/11/29 05:21:54;;;;;;;28.00;12.13;;;;;;;;;;4998557;28;20044;-80
2022/11/29 05:24:40;;;;;;;25.77;12.02;;;;;;;;;;4998802;28;20057;-81
2022/11/29 05:27:11;;;;;;;25.27;13.07;;;;;;;;;;4998864;28;20387;-81
2022/11/29 05:29:54;;;;;;;25.88;12.50;;;;;;;;;;4998349;28;20026;-80
2022/11/29 05:32:29;;;;;;;25.48;12.70;;;;;;;;;;4997763;28;20026;-82
2022/11/29 05:35:42;;;;;;;24.20;11.80;;;;;;;;;;4996347;28;20067;-79
2022/11/29 05:38:42;;;;;;;20.83;8.13;;;;;;;;;;4980468;28;20514;-80
2022/11/29 05:41:26;;;;;;;23.15;10.48;;;;;;;;;;4998955;28;20182;-82
2022/11/29 05:44:17;;;;;;;22.40;11.50;;;;;;;;;;4999671;28;20026;-80
2022/11/29 05:46:58;;;;;;;27.40;12.77;;;;;;;;;;4998564;28;20264;-80
2022/11/29 05:49:39;;;;;;;26.52;12.50;;;;;;;;;;4998339;28;20079;-80
2022/11/29 05:52:26;;;;;;;18.50;9.95;;;;;;;;;;4999808;28;20022;-81
2022/11/29 05:55:13;;;;;;;23.00;10.88;;;;;;;;;;4998384;28;20022;-80
2022/11/29 05:57:54;;;;;;;30.00;13.10;;;;;;;;;;4996706;28;20093;-81
2022/11/29 06:00:20;;;;;;;25.52;11.07;;;;;;;;;;4998853;28;20096;-81
2022/11/29 06:03:20;;;;;;;25.65;11.35;;;;;;;;;;4999979;28;20147;-80
2022/11/29 06:05:57;;;;;;;25.08;12.40;;;;;;;;;;5015090;28;20057;-80
2022/11/29 06:08:42;;;;;;;25.08;11.55;;;;;;;;;;5000226;28;20034;-80
2022/11/29 06:11:26;;;;;;;26.30;12.20;;;;;;;;;;4999962;28;20353;-80
2022/11/29 06:14:08;;;;;;;24.88;11.32;;;;;;;;;;5000528;28;20427;-80
2022/11/29 06:16:55;;;;;;;24.98;11.55;;;;;;;;;;5002790;28;20030;-80
2022/11/29 06:19:28;;;;;;;24.55;11.27;;;;;;;;;;5000762;28;20492;-80
2022/11/29 06:22:19;;;;;;;31.58;13.43;;;;;;;;;;4997955;28;20058;-79
2022/11/29 06:25:02;;;;;;;29.52;13.07;;;;;;;;;;4999252;28;20026;-80
2022/11/29 06:27:48;;;;;;;25.98;11.70;;;;;;;;;;4999397;28;20022;-80
2022/11/29 06:30:17;;;;;;;24.88;12.35;;;;;;;;;;4999438;28;20436;-81
2022/11/29 06:32:49;;;;;;;20.25;9.80;;;;;;;;;;4999749;28;20435;-82
2022/11/29 06:35:46;;;;;;;27.70;12.65;;;;;;;;;;4999185;28;20037;-81
2022/11/29 06:38:21;;;;;;;23.42;11.05;;;;;;;;;;5001137;28;20018;-81
2022/11/29 06:40:47;;;;;;;24.15;11.48;;;;;;;;;;5000219;28;20038;-80
2022/11/29 06:43:15;;;;;;;21.65;11.38;;;;;;;;;;5000387;28;20022;-81
2022/11/29 06:45:55;;;;;;;27.23;11.93;;;;;;;;;;5000580;28;20506;-81
2022/11/29 06:48:25;;;;;;;25.95;11.48;;;;;;;;;;5000097;28;20034;-81
2022/11/29 06:51:13;;;;;;;20.15;10.43;;;;;;;;;;5000271;28;20027;-80
2022/11/29 06:53:52;;;;;;;25.77;11.07;;;;;;;;;;5000374;28;20030;-81
2022/11/29 06:56:52;;;;;;;22.38;10.05;;;;;;;;;;5000234;28;20045;-81
2022/11/29 07:00:10;;;;;;;24.15;12.27;;;;;;;;;;5015637;28;20022;-79
2022/11/29 07:03:10;;;;;;;26.92;11.40;;;;;;;;;;4978611;28;20125;-80
2022/11/29 07:05:35;;;;;;;25.48;10.65;;;;;;;;;;5001879;28;20390;-81
2022/11/29 07:08:09;;;;;;;22.98;9.93;;;;;;;;;;5001342;28;20112;-81
2022/11/29 07:10:37;;;;;;;22.95;10.60;;;;;;;;;;5000186;28;20022;-80
2022/11/29 07:13:03;;;;;;;22.77;11.88;;;;;;;;;;5000034;28;20034;-79
2022/11/29 07:15:29;;;;;;;23.65;11.27;;;;;;;;;;5014969;28;20018;-80
2022/11/29 07:18:21;;;;;;;21.25;10.85;;;;;;;;;;4999748;28;20388;-81
2022/11/29 07:20:57;;;;;;;24.75;10.82;;;;;;;;;;5000164;28;20030;-80
2022/11/29 07:23:37;;;;;;;22.60;10.23;;;;;;;;;;5000364;28;20484;-81
2022/11/29 07:26:21;;;;;;;24.20;10.75;;;;;;;;;;5000271;28;20041;-81
2022/11/29 07:29:17;;;;;;;25.35;11.00;;;;;;;;;;4999767;28;20030;-82
2022/11/29 07:31:55;;;;;;;22.05;10.30;;;;;;;;;;4999999;28;20030;-82
2022/11/29 07:34:37;;;;;;;21.15;11.18;;;;;;;;;;5000217;28;20480;-82
2022/11/29 07:37:32;;;;;;;17.58;8.70;;;;;;;;;;5000333;28;20026;-81
2022/11/29 07:40:53;;;;;;;20.23;9.95;;;;;;;;;;5000521;28;20040;-81
2022/11/29 07:43:59;;;;;;;20.85;10.88;;;;;;;;;;4939178;29;20044;-82
2022/11/29 07:46:24;;;;;;;24.85;10.77;;;;;;;;;;5014768;28;20022;-81
2022/11/29 07:48:50;;;;;;;26.88;10.82;;;;;;;;;;4999742;28;20048;-81
2022/11/29 07:51:18;;;;;;;21.73;10.70;;;;;;;;;;5015043;28;20033;-80
2022/11/29 07:53:44;;;;;;;25.40;10.93;;;;;;;;;;4998873;28;20040;-80
2022/11/29 07:56:11;;;;;;;21.77;10.63;;;;;;;;;;4997533;28;20539;-80
2022/11/29 07:58:36;;;;;;;20.98;9.68;;;;;;;;;;5014251;28;20534;-81
2022/11/29 08:01:02;;;;;;;22.92;11.00;;;;;;;;;;5014391;28;20030;-81
2022/11/29 08:03:28;;;;;;;24.27;11.50;;;;;;;;;;5014843;28;20036;-81
2022/11/29 08:05:53;;;;;;;21.50;10.93;;;;;;;;;;5015560;28;20044;-79
2022/11/29 08:08:19;;;;;;;20.23;11.05;;;;;;;;;;5000588;28;20037;-80
2022/11/29 08:10:44;;;;;;;22.15;9.95;;;;;;;;;;5000071;28;20444;-80
2022/11/29 08:13:09;;;;;;;24.23;10.15;;;;;;;;;;5000044;28;20037;-82
2022/11/29 08:15:35;;;;;;;22.27;10.50;;;;;;;;;;4998869;28;20023;-81
2022/11/29 08:18:01;;;;;;;21.08;11.10;;;;;;;;;;4997826;28;20109;-81
2022/11/29 08:20:27;;;;;;;20.10;10.15;;;;;;;;;;5014642;28;20026;-80
2022/11/29 08:22:57;;;;;;;21.83;10.60;;;;;;;;;;4999440;28;20049;-81
2022/11/29 08:25:22;;;;;;;26.00;12.05;;;;;;;;;;5014964;28;20394;-79
2022/11/29 08:27:48;;;;;;;22.70;10.63;;;;;;;;;;5000134;28;20025;-80
2022/11/29 08:30:13;;;;;;;22.48;11.23;;;;;;;;;;5000875;28;20026;-80
2022/11/29 08:32:39;;;;;;;20.08;9.93;;;;;;;;;;5004178;28;20112;-80
2022/11/29 08:35:04;;;;;;;19.25;9.30;;;;;;;;;;5002343;28;20054;-80
2022/11/29 08:37:29;;;;;;;16.40;7.20;;;;;;;;;;5001978;28;20388;-80
2022/11/29 08:39:57;;;;;;;24.05;11.05;;;;;;;;;;5003356;28;20031;-81
2022/11/29 08:42:22;;;;;;;15.90;6.72;;;;;;;;;;5003061;28;20026;-79
2022/11/29 08:44:47;;;;;;;25.83;11.05;;;;;;;;;;5002027;28;20506;-80
2022/11/29 08:50:00;;;;;;;23.52;11.20;;;;;;;;;;5002711;28;20049;-80
2022/11/29 08:55:09;;;;;;;22.25;10.43;;;;;;;;;;5003791;28;20037;-80
2022/11/29 08:57:35;;;;;;;22.25;9.95;;;;;;;;;;5002014;28;20022;-82
2022/11/29 09:00:00;;;;;;;21.23;10.45;;;;;;;;;;5003209;28;20023;-80
2022/11/29 09:02:26;;;;;;;19.25;10.10;;;;;;;;;;5017962;28;20045;-80
2022/11/29 09:04:51;;;;;;;17.65;9.45;;;;;;;;;;5000463;28;20027;-81
2022/11/29 09:07:16;;;;;;;24.27;9.70;;;;;;;;;;5000405;28;20448;-81
2022/11/29 09:09:41;;;;;;;20.70;9.73;;;;;;;;;;4999751;28;20072;-80
2022/11/29 09:12:07;;;;;;;21.20;10.77;;;;;;;;;;5015253;28;20034;-81
2022/11/29 09:14:33;;;;;;;23.85;11.18;;;;;;;;;;5001696;28;20157;-81
2022/11/29 09:16:59;;;;;;;22.05;10.80;;;;;;;;;;5001738;28;20026;-81
2022/11/29 09:19:24;;;;;;;20.27;10.40;;;;;;;;;;5002571;28;20033;-81
2022/11/29 09:21:50;;;;;;;22.83;9.20;;;;;;;;;;5001305;28;20148;-81
2022/11/29 09:24:15;;;;;;;18.42;10.20;;;;;;;;;;5002608;28;20029;-81
2022/11/29 09:26:41;;;;;;;20.50;9.63;;;;;;;;;;5001772;28;20407;-82
2022/11/29 09:29:06;;;;;;;19.52;8.65;;;;;;;;;;5001363;28;20064;-82
2022/11/29 09:31:33;;;;;;;19.73;10.20;;;;;;;;;;5002284;28;20480;-81
2022/11/29 09:33:58;;;;;;;19.83;9.70;;;;;;;;;;5001595;28;20034;-81
2022/11/29 09:36:24;;;;;;;22.48;9.88;;;;;;;;;;5001918;28;20101;-81
2022/11/29 09:38:49;;;;;;;19.30;9.68;;;;;;;;;;5002070;28;20108;-81
2022/11/29 09:41:52;;;;;;;17.45;9.52;;;;;;;;;;5001918;28;20027;-82
2022/11/29 09:44:31;;;;;;;16.95;8.55;;;;;;;;;;5002451;28;20030;-82
2022/11/29 09:47:13;;;;;;;18.20;9.18;;;;;;;;;;5002246;28;20037;-80
2022/11/29 09:50:16;;;;;;;18.55;8.80;;;;;;;;;;5002394;28;20037;-81
2022/11/29 09:53:07;;;;;;;13.15;6.57;;;;;;;;;;5000658;28;20387;-80
2022/11/29 09:55:57;;;;;;;17.23;8.13;;;;;;;;;;5000556;28;20029;-80
2022/11/29 09:58:29;;;;;;;17.27;9.20;;;;;;;;;;5001507;28;20120;-81
2022/11/29 10:01:04;;;;;;;17.00;8.90;;;;;;;;;;5002902;28;20025;-81
2022/11/29 10:03:41;;;;;;;17.15;8.43;;;;;;;;;;5005346;28;20102;-81
2022/11/29 10:06:27;;;;;;;18.88;8.77;;;;;;;;;;5006871;28;20034;-81
2022/11/29 10:09:00;;;;;;;18.48;8.63;;;;;;;;;;5022408;28;20049;-81
2022/11/29 10:11:40;;;;;;;18.55;8.98;;;;;;;;;;5004221;28;20053;-80
2022/11/29 10:14:13;;;;;;;15.73;7.82;;;;;;;;;;4999900;28;20053;-82
2022/11/29 10:16:48;;;;;;;19.08;8.85;;;;;;;;;;5015457;28;20149;-81
2022/11/29 10:19:24;;;;;;;13.07;5.82;;;;;;;;;;5013974;28;20032;-82
2022/11/29 10:22:14;;;;;;;15.02;5.18;;;;;;;;;;4998801;28;20070;-82
2022/11/29 10:24:46;;;;;;;16.85;8.13;;;;;;;;;;5014816;28;20038;-82
2022/11/29 10:27:22;;;;;;;18.40;9.50;;;;;;;;;;4999875;28;20045;-81
2022/11/29 10:29:50;;;;;;;17.90;8.95;;;;;;;;;;5000039;28;20022;-80
2022/11/29 10:32:19;;;;;;;21.45;9.30;;;;;;;;;;5015559;28;20018;-80
2022/11/29 10:34:45;;;;;;;19.55;9.52;;;;;;;;;;5015080;28;20026;-81
2022/11/29 10:37:14;;;;;;;20.23;9.45;;;;;;;;;;5000662;28;20022;-80
2022/11/29 10:39:45;;;;;;;20.23;9.85;;;;;;;;;;4999544;28;20408;-81
2022/11/29 10:45:09;;;;;;;14.00;7.22;;;;;;;;;;5001575;28;20037;-81
2022/11/29 10:47:35;;;;;;;22.52;10.30;;;;;;;;;;5000098;28;20403;-81
2022/11/29 10:50:01;;;;;;;22.02;10.52;;;;;;;;;;5000099;28;20030;-81
2022/11/29 10:52:26;;;;;;;16.17;7.97;;;;;;;;;;4999764;28;20105;-80
2022/11/29 10:54:55;;;;;;;21.95;10.40;;;;;;;;;;5001202;28;20018;-80
2022/11/29 10:57:21;;;;;;;20.30;9.45;;;;;;;;;;5001005;28;20033;-81
2022/11/29 11:00:08;;;;;;;17.85;8.88;;;;;;;;;;5001393;28;20057;-80
2022/11/29 11:02:35;;;;;;;19.60;9.68;;;;;;;;;;5000842;28;20035;-81
2022/11/29 11:05:01;;;;;;;21.45;10.38;;;;;;;;;;5015452;28;20026;-81
2022/11/29 11:07:36;;;;;;;19.95;9.57;;;;;;;;;;5001327;28;20030;-81
2022/11/29 11:10:14;;;;;;;22.20;9.90;;;;;;;;;;5015472;28;20384;-83
2022/11/29 11:12:40;;;;;;;21.20;9.95;;;;;;;;;;5016054;28;20027;-80
2022/11/29 11:15:23;;;;;;;21.08;10.23;;;;;;;;;;5000309;28;20019;-81
2022/11/29 11:17:58;;;;;;;22.65;11.18;;;;;;;;;;5000567;28;20030;-82
2022/11/29 11:20:26;;;;;;;23.35;10.35;;;;;;;;;;4999782;28;20026;-81
2022/11/29 11:23:20;;;;;;;23.38;10.48;;;;;;;;;;4999667;28;20030;-81
2022/11/29 11:25:49;;;;;;;19.90;9.38;;;;;;;;;;4995509;28;20058;-81
2022/11/29 11:28:21;;;;;;;21.48;9.98;;;;;;;;;;5002588;28;20123;-83
2022/11/29 11:31:07;;;;;;;17.92;9.32;;;;;;;;;;5001178;28;20034;-80
2022/11/29 11:33:37;;;;;;;21.73;9.65;;;;;;;;;;5015880;28;20034;-81
2022/11/29 11:36:08;;;;;;;25.75;11.45;;;;;;;;;;5000793;28;20026;-81
2022/11/29 11:38:35;;;;;;;20.83;10.32;;;;;;;;;;4998685;28;20117;-81
2022/11/29 11:41:14;;;;;;;22.85;10.07;;;;;;;;;;4999777;28;20101;-83
2022/11/29 11:43:39;;;;;;;17.38;8.68;;;;;;;;;;4999949;28;20602;-80
2022/11/29 11:46:05;;;;;;;24.30;10.45;;;;;;;;;;5001515;28;20050;-81
2022/11/29 11:48:31;;;;;;;21.67;10.20;;;;;;;;;;5001143;28;20027;-81
2022/11/29 11:50:59;;;;;;;22.90;11.65;;;;;;;;;;4998827;28;20125;-82
2022/11/29 11:53:34;;;;;;;25.65;11.05;;;;;;;;;;4998054;28;20435;-81
2022/11/29 11:56:12;;;;;;;22.15;10.35;;;;;;;;;;4997949;28;20029;-82
2022/11/29 11:58:47;;;;;;;20.15;7.95;;;;;;;;;;4996356;28;20037;-80
2022/11/29 12:01:12;;;;;;;22.05;10.57;;;;;;;;;;4999831;28;20029;-80
2022/11/29 12:03:46;;;;;;;22.40;10.35;;;;;;;;;;4999002;28;20030;-80
2022/11/29 12:06:27;;;;;;;23.98;10.50;;;;;;;;;;5001845;28;20029;-82
2022/11/29 12:09:04;;;;;;;18.52;9.40;;;;;;;;;;5004683;28;20064;-82
2022/11/29 12:11:43;;;;;;;23.25;8.95;;;;;;;;;;5001848;28;20122;-82
2022/11/29 12:14:18;;;;;;;22.55;10.38;;;;;;;;;;5018779;28;20084;-81
2022/11/29 12:16:45;;;;;;;19.23;8.93;;;;;;;;;;5003760;28;20364;-80
2022/11/29 12:19:18;;;;;;;21.13;9.82;;;;;;;;;;5002651;28;20026;-81
2022/11/29 12:21:51;;;;;;;23.20;10.77;;;;;;;;;;5004322;28;20030;-80
2022/11/29 12:24:31;;;;;;;21.65;11.18;;;;;;;;;;5019638;28;20096;-80
2022/11/29 12:27:02;;;;;;;22.77;10.68;;;;;;;;;;5002948;28;20058;-82
2022/11/29 12:29:30;;;;;;;21.63;10.25;;;;;;;;;;5003888;28;20037;-81
2022/11/29 12:32:02;;;;;;;21.90;10.88;;;;;;;;;;5003937;28;20109;-80
2022/11/29 12:34:42;;;;;;;22.05;10.95;;;;;;;;;;5003883;28;20030;-80
2022/11/29 12:37:31;;;;;;;19.85;10.25;;;;;;;;;;5003899;28;20117;-82
2022/11/29 12:40:11;;;;;;;21.98;10.88;;;;;;;;;;5003721;28;20037;-81
2022/11/29 12:42:48;;;;;;;22.73;10.43;;;;;;;;;;5003522;28;20027;-82
2022/11/29 12:45:37;;;;;;;23.17;10.63;;;;;;;;;;5003534;28;20064;-82
2022/11/29 12:48:30;;;;;;;20.92;9.20;;;;;;;;;;5002785;28;20110;-81
2022/11/29 12:51:17;;;;;;;21.45;9.75;;;;;;;;;;5003462;28;20029;-80
2022/11/29 12:54:00;;;;;;;21.63;9.88;;;;;;;;;;5001789;28;20030;-81
2022/11/29 12:56:31;;;;;;;21.10;9.68;;;;;;;;;;5003568;28;20026;-80
2022/11/29 12:59:15;;;;;;;19.38;10.23;;;;;;;;;;5003066;28;20488;-81
2022/11/29 13:01:55;;;;;;;20.13;9.55;;;;;;;;;;5002377;28;20026;-79
2022/11/29 13:04:29;;;;;;;24.33;11.45;;;;;;;;;;5002191;28;20065;-81
2022/11/29 13:07:03;;;;;;;18.83;9.40;;;;;;;;;;5002506;28;20034;-80
2022/11/29 13:09:40;;;;;;;22.40;9.38;;;;;;;;;;5000879;28;20121;-80
2022/11/29 13:12:14;;;;;;;22.70;11.52;;;;;;;;;;5002713;28;20094;-81
2022/11/29 13:14:54;;;;;;;21.40;10.75;;;;;;;;;;5001854;28;20469;-81
2022/11/29 13:17:24;;;;;;;21.30;9.75;;;;;;;;;;5001136;28;20057;-80
2022/11/29 13:19:55;;;;;;;24.35;11.20;;;;;;;;;;5001570;28;20088;-80
2022/11/29 13:22:38;;;;;;;27.65;11.55;;;;;;;;;;5001678;28;20026;-82
2022/11/29 13:25:14;;;;;;;22.88;11.10;;;;;;;;;;5002609;28;20113;-81
2022/11/29 13:27:47;;;;;;;24.40;11.20;;;;;;;;;;5001710;28;20084;-82
2022/11/29 13:30:13;;;;;;;27.17;11.60;;;;;;;;;;5001123;28;20037;-82
2022/11/29 13:32:52;;;;;;;27.30;12.60;;;;;;;;;;5000451;28;20026;-81
2022/11/29 13:35:36;;;;;;;25.23;10.20;;;;;;;;;;5001038;28;20060;-81
2022/11/29 13:38:24;;;;;;;27.48;12.73;;;;;;;;;;5001911;28;20026;-80
2022/11/29 13:41:15;;;;;;;23.70;10.93;;;;;;;;;;5001851;28;20030;-81
2022/11/29 13:44:25;;;;;;;23.27;10.43;;;;;;;;;;5000253;28;20033;-80
2022/11/29 13:46:58;;;;;;;26.65;12.02;;;;;;;;;;4973868;28;20045;-80
2022/11/29 13:49:49;;;;;;;28.85;12.32;;;;;;;;;;5001585;28;20026;-82
2022/11/29 13:52:25;;;;;;;27.70;12.30;;;;;;;;;;5001933;28;20065;-82
2022/11/29 13:55:05;;;;;;;27.65;11.85;;;;;;;;;;5001367;28;20022;-82
2022/11/29 13:57:45;;;;;;;29.23;12.65;;;;;;;;;;5017336;28;20036;-80
2022/11/29 14:00:30;;;;;;;27.45;12.45;;;;;;;;;;5001675;28;20439;-80
2022/11/29 14:02:56;;;;;;;19.10;9.18;;;;;;;;;;5001929;28;20488;-82
2022/11/29 14:05:27;;;;;;;26.88;12.30;;;;;;;;;;5001452;28;20038;-81
2022/11/29 14:08:24;;;;;;;27.35;11.52;;;;;;;;;;4999553;28;20173;-82
2022/11/29 14:10:51;;;;;;;28.40;12.95;;;;;;;;;;5001574;28;20038;-80
2022/11/29 14:13:17;;;;;;;25.50;11.40;;;;;;;;;;5014879;28;20057;-82
2022/11/29 14:15:43;;;;;;;28.92;11.50;;;;;;;;;;5000318;28;20026;-81
2022/11/29 14:18:39;;;;;;;26.90;12.65;;;;;;;;;;5015394;28;20022;-80
2022/11/29 14:21:08;;;;;;;24.30;11.27;;;;;;;;;;4999382;28;20022;-81
2022/11/29 14:23:42;;;;;;;16.85;8.02;;;;;;;;;;4998701;28;20026;-80
2022/11/29 14:26:07;;;;;;;24.42;12.00;;;;;;;;;;5015507;28;20034;-81
2022/11/29 14:28:34;;;;;;;26.60;12.70;;;;;;;;;;5000673;28;20404;-80
2022/11/29 14:31:02;;;;;;;22.70;10.98;;;;;;;;;;5000779;28;20347;-80
2022/11/29 14:33:34;;;;;;;25.00;11.70;;;;;;;;;;5000843;28;20030;-82
2022/11/29 14:36:21;;;;;;;25.67;12.10;;;;;;;;;;5000756;28;20026;-81
2022/11/29 14:39:22;;;;;;;25.85;12.18;;;;;;;;;;4998748;28;20029;-79
2022/11/29 14:41:53;;;;;;;25.25;11.63;;;;;;;;;;4999787;28;20049;-80
2022/11/29 14:44:28;;;;;;;27.48;12.35;;;;;;;;;;4999865;28;20041;-80
2022/11/29 14:47:28;;;;;;;30.60;12.80;;;;;;;;;;5001809;28;20023;-81
2022/11/29 14:49:55;;;;;;;29.42;12.35;;;;;;;;;;5002238;28;20042;-82
2022/11/29 14:52:32;;;;;;;33.22;11.70;;;;;;;;;;5002030;28;20113;-80
2022/11/29 14:55:05;;;;;;;27.55;12.82;;;;;;;;;;5017495;28;20030;-82
2022/11/29 14:57:46;;;;;;;27.90;12.40;;;;;;;;;;5017008;28;20113;-81
2022/11/29 15:00:22;;;;;;;24.55;11.70;;;;;;;;;;5001731;28;20018;-80
2022/11/29 15:03:02;;;;;;;27.98;11.93;;;;;;;;;;5002703;28;20065;-80
2022/11/29 15:05:37;;;;;;;23.50;10.60;;;;;;;;;;5003017;28;20034;-81
2022/11/29 15:08:24;;;;;;;29.20;13.77;;;;;;;;;;5002532;28;20057;-81
2022/11/29 15:10:54;;;;;;;29.27;12.32;;;;;;;;;;5001570;28;20027;-80
2022/11/29 15:13:30;;;;;;;23.27;10.40;;;;;;;;;;5016243;28;20029;-81
2022/11/29 15:16:27;;;;;;;26.38;12.40;;;;;;;;;;5015660;28;20030;-81
2022/11/29 15:19:12;;;;;;;27.23;12.20;;;;;;;;;;4999911;28;20487;-79
2022/11/29 15:22:02;;;;;;;26.25;10.65;;;;;;;;;;5000496;28;20090;-81
2022/11/29 15:24:28;;;;;;;29.35;12.40;;;;;;;;;;4999820;28;20022;-79